sensor_id;sensor_type;location;lat;lon;timestamp;P1;durP1;ratioP1;P2;durP2;ratioP2
29814;SDS011;16708;50.426;7.664;2023-03-11T00:11:40;5.40;;;1.70;;
29814;SDS011;16708;50.426;7.664;2023-03-11T00:26:17;8.70;;;1.70;;
29814;SDS011;16708;50.426;7.664;2023-03-11T00:40:52;9.80;;;2.00;;
29814;SDS011;16708;50.426;7.664;2023-03-11T00:55:29;8.10;;;1.60;;
29814;SDS011;16708;50.426;7.664;2023-03-11T01:10:04;9.00;;;1.90;;
29814;SDS011;16708;50.426;7.664;2023-03-11T01:24:41;8.40;;;1.90;;
29814;SDS011;16708;50.426;7.664;2023-03-11T01:39:18;10.70;;;2.10;;
29814;SDS011;16708;50.426;7.664;2023-03-11T01:53:54;10.90;;;2.40;;
29814;SDS011;16708;50.426;7.664;2023-03-11T02:08:29;12.20;;;2.50;;
29814;SDS011;16708;50.426;7.664;2023-03-11T02:23:06;9.90;;;2.40;;
29814;SDS011;16708;50.426;7.664;2023-03-11T02:52:12;11.10;;;2.70;;
29814;SDS011;16708;50.426;7.664;2023-03-11T03:06:50;16.00;;;2.60;;
29814;SDS011;16708;50.426;7.664;2023-03-11T03:21:23;7.40;;;1.90;;
29814;SDS011;16708;50.426;7.664;2023-03-11T03:36:01;11.60;;;2.40;;
29814;SDS011;16708;50.426;7.664;2023-03-11T03:50:35;7.00;;;1.90;;
29814;SDS011;16708;50.426;7.664;2023-03-11T04:05:11;8.80;;;1.70;;
29814;SDS011;16708;50.426;7.664;2023-03-11T04:19:46;9.30;;;1.70;;
29814;SDS011;16708;50.426;7.664;2023-03-11T04:34:23;9.80;;;1.70;;
29814;SDS011;16708;50.426;7.664;2023-03-11T04:48:59;5.10;;;0.90;;
29814;SDS011;16708;50.426;7.664;2023-03-11T05:03:32;10.20;;;1.40;;
29814;SDS011;16708;50.426;7.664;2023-03-11T05:18:08;6.00;;;1.20;;
29814;SDS011;16708;50.426;7.664;2023-03-11T05:32:44;3.80;;;0.90;;
29814;SDS011;16708;50.426;7.664;2023-03-11T05:47:19;11.80;;;1.90;;
29814;SDS011;16708;50.426;7.664;2023-03-11T06:01:56;8.00;;;1.10;;
29814;SDS011;16708;50.426;7.664;2023-03-11T06:16:29;14.80;;;1.50;;
29814;SDS011;16708;50.426;7.664;2023-03-11T06:31:06;8.80;;;1.70;;
29814;SDS011;16708;50.426;7.664;2023-03-11T06:45:42;11.30;;;1.40;;
29814;SDS011;16708;50.426;7.664;2023-03-11T07:00:20;6.60;;;1.30;;
29814;SDS011;16708;50.426;7.664;2023-03-11T07:14:54;5.20;;;1.30;;
29814;SDS011;16708;50.426;7.664;2023-03-11T07:29:32;5.50;;;1.50;;
29814;SDS011;16708;50.426;7.664;2023-03-11T07:44:10;10.80;;;3.20;;
29814;SDS011;16708;50.426;7.664;2023-03-11T07:58:49;7.20;;;1.20;;
29814;SDS011;16708;50.426;7.664;2023-03-11T08:13:27;6.00;;;1.40;;
29814;SDS011;16708;50.426;7.664;2023-03-11T08:28:03;6.50;;;1.70;;
29814;SDS011;16708;50.426;7.664;2023-03-11T08:42:39;7.30;;;1.50;;
29814;SDS011;16708;50.426;7.664;2023-03-11T08:57:18;9.50;;;1.50;;
29814;SDS011;16708;50.426;7.664;2023-03-11T09:11:57;8.10;;;1.60;;
29814;SDS011;16708;50.426;7.664;2023-03-11T09:16:53;4.30;;;1.10;;
29814;SDS011;16708;50.426;7.664;2023-03-11T09:21:48;9.10;;;1.50;;
29814;SDS011;16708;50.426;7.664;2023-03-11T09:26:43;4.80;;;1.00;;
29814;SDS011;16708;50.426;7.664;2023-03-11T09:41:14;4.80;;;1.40;;
29814;SDS011;16708;50.426;7.664;2023-03-11T09:51:04;4.70;;;1.30;;
29814;SDS011;16708;50.426;7.664;2023-03-11T09:56:00;3.50;;;0.80;;
29814;SDS011;16708;50.426;7.664;2023-03-11T10:00:54;5.40;;;1.10;;
29814;SDS011;16708;50.426;7.664;2023-03-11T10:05:48;2.50;;;0.80;;
29814;SDS011;16708;50.426;7.664;2023-03-11T10:15:35;4.60;;;0.90;;
29814;SDS011;16708;50.426;7.664;2023-03-11T10:20:27;2.90;;;0.80;;
29814;SDS011;16708;50.426;7.664;2023-03-11T10:25:23;2.60;;;1.00;;
29814;SDS011;16708;50.426;7.664;2023-03-11T10:30:20;5.20;;;1.40;;
29814;SDS011;16708;50.426;7.664;2023-03-11T10:35:17;2.10;;;0.70;;
29814;SDS011;16708;50.426;7.664;2023-03-11T10:40:07;5.90;;;1.00;;
29814;SDS011;16708;50.426;7.664;2023-03-11T10:49:53;4.10;;;0.70;;
29814;SDS011;16708;50.426;7.664;2023-03-11T10:54:48;1.60;;;0.60;;
29814;SDS011;16708;50.426;7.664;2023-03-11T10:59:45;7.10;;;2.70;;
29814;SDS011;16708;50.426;7.664;2023-03-11T11:04:39;3.90;;;0.80;;
29814;SDS011;16708;50.426;7.664;2023-03-11T11:14:25;3.80;;;1.10;;
29814;SDS011;16708;50.426;7.664;2023-03-11T11:19:18;4.00;;;0.80;;
29814;SDS011;16708;50.426;7.664;2023-03-11T11:24:10;3.20;;;0.70;;
29814;SDS011;16708;50.426;7.664;2023-03-11T11:29:06;9.70;;;2.50;;
29814;SDS011;16708;50.426;7.664;2023-03-11T11:34:02;4.30;;;0.70;;
29814;SDS011;16708;50.426;7.664;2023-03-11T11:38:58;1.60;;;0.90;;
29814;SDS011;16708;50.426;7.664;2023-03-11T11:43:53;4.40;;;1.00;;
29814;SDS011;16708;50.426;7.664;2023-03-11T11:48:46;4.40;;;0.90;;
29814;SDS011;16708;50.426;7.664;2023-03-11T11:53:41;4.40;;;0.90;;
29814;SDS011;16708;50.426;7.664;2023-03-11T11:58:35;2.20;;;0.90;;
29814;SDS011;16708;50.426;7.664;2023-03-11T12:03:28;2.60;;;0.80;;
29814;SDS011;16708;50.426;7.664;2023-03-11T12:13:17;3.10;;;0.90;;
29814;SDS011;16708;50.426;7.664;2023-03-11T12:18:13;5.10;;;0.90;;
29814;SDS011;16708;50.426;7.664;2023-03-11T12:28:00;2.60;;;0.80;;
29814;SDS011;16708;50.426;7.664;2023-03-11T13:07:08;2.90;;;0.70;;
29814;SDS011;16708;50.426;7.664;2023-03-11T13:17:00;4.50;;;0.90;;
29814;SDS011;16708;50.426;7.664;2023-03-11T13:26:48;20.00;;;6.70;;
29814;SDS011;16708;50.426;7.664;2023-03-11T13:41:29;4.10;;;0.80;;
29814;SDS011;16708;50.426;7.664;2023-03-11T13:46:23;11.40;;;4.80;;
29814;SDS011;16708;50.426;7.664;2023-03-11T13:51:17;6.60;;;2.30;;
29814;SDS011;16708;50.426;7.664;2023-03-11T13:56:11;3.90;;;1.20;;
29814;SDS011;16708;50.426;7.664;2023-03-11T14:01:06;7.10;;;1.10;;
29814;SDS011;16708;50.426;7.664;2023-03-11T14:10:55;3.50;;;1.00;;
29814;SDS011;16708;50.426;7.664;2023-03-11T14:15:50;2.00;;;0.80;;
29814;SDS011;16708;50.426;7.664;2023-03-11T14:20:45;2.50;;;1.10;;
29814;SDS011;16708;50.426;7.664;2023-03-11T14:25:40;3.80;;;0.70;;
29814;SDS011;16708;50.426;7.664;2023-03-11T14:30:38;4.60;;;1.40;;
29814;SDS011;16708;50.426;7.664;2023-03-11T14:35:29;2.60;;;0.70;;
29814;SDS011;16708;50.426;7.664;2023-03-11T14:40:23;5.80;;;0.90;;
29814;SDS011;16708;50.426;7.664;2023-03-11T14:45:16;2.90;;;1.10;;
29814;SDS011;16708;50.426;7.664;2023-03-11T14:50:11;3.00;;;0.80;;
29814;SDS011;16708;50.426;7.664;2023-03-11T14:55:06;4.60;;;1.20;;
29814;SDS011;16708;50.426;7.664;2023-03-11T15:00:00;6.20;;;1.30;;
29814;SDS011;16708;50.426;7.664;2023-03-11T15:04:54;2.40;;;0.90;;
29814;SDS011;16708;50.426;7.664;2023-03-11T15:09:49;4.50;;;1.10;;
29814;SDS011;16708;50.426;7.664;2023-03-11T15:19:35;7.00;;;1.50;;
29814;SDS011;16708;50.426;7.664;2023-03-11T15:24:28;3.30;;;0.90;;
29814;SDS011;16708;50.426;7.664;2023-03-11T15:29:22;3.80;;;0.90;;
29814;SDS011;16708;50.426;7.664;2023-03-11T15:34:16;6.90;;;1.20;;
29814;SDS011;16708;50.426;7.664;2023-03-11T15:53:56;6.30;;;1.60;;
29814;SDS011;16708;50.426;7.664;2023-03-11T15:58:51;3.90;;;0.90;;
29814;SDS011;16708;50.426;7.664;2023-03-11T16:08:40;3.40;;;1.40;;
29814;SDS011;16708;50.426;7.664;2023-03-11T16:13:34;2.40;;;1.00;;
29814;SDS011;16708;50.426;7.664;2023-03-11T16:18:29;3.20;;;1.10;;
29814;SDS011;16708;50.426;7.664;2023-03-11T16:23:23;4.00;;;1.20;;
29814;SDS011;16708;50.426;7.664;2023-03-11T16:28:17;4.90;;;1.30;;
29814;SDS011;16708;50.426;7.664;2023-03-11T16:33:11;5.50;;;1.70;;
29814;SDS011;16708;50.426;7.664;2023-03-11T16:38:05;4.80;;;1.50;;
29814;SDS011;16708;50.426;7.664;2023-03-11T16:42:59;3.60;;;1.20;;
29814;SDS011;16708;50.426;7.664;2023-03-11T16:47:53;4.30;;;1.30;;
29814;SDS011;16708;50.426;7.664;2023-03-11T16:52:46;4.70;;;1.10;;
29814;SDS011;16708;50.426;7.664;2023-03-11T16:57:39;5.00;;;1.20;;
29814;SDS011;16708;50.426;7.664;2023-03-11T17:02:33;4.30;;;1.70;;
29814;SDS011;16708;50.426;7.664;2023-03-11T17:07:27;4.30;;;1.50;;
29814;SDS011;16708;50.426;7.664;2023-03-11T17:12:20;6.10;;;1.70;;
29814;SDS011;16708;50.426;7.664;2023-03-11T17:17:12;4.40;;;1.20;;
29814;SDS011;16708;50.426;7.664;2023-03-11T17:22:06;5.00;;;1.20;;
29814;SDS011;16708;50.426;7.664;2023-03-11T17:27:00;5.80;;;0.90;;
29814;SDS011;16708;50.426;7.664;2023-03-11T17:31:53;7.30;;;1.10;;
29814;SDS011;16708;50.426;7.664;2023-03-11T17:36:46;2.20;;;1.00;;
29814;SDS011;16708;50.426;7.664;2023-03-11T17:41:43;4.00;;;1.20;;
29814;SDS011;16708;50.426;7.664;2023-03-11T17:46:33;4.10;;;1.40;;
29814;SDS011;16708;50.426;7.664;2023-03-11T17:51:27;5.20;;;1.40;;
29814;SDS011;16708;50.426;7.664;2023-03-11T17:56:21;5.20;;;1.70;;
29814;SDS011;16708;50.426;7.664;2023-03-11T18:01:15;5.90;;;2.40;;
29814;SDS011;16708;50.426;7.664;2023-03-11T18:06:09;7.50;;;2.90;;
29814;SDS011;16708;50.426;7.664;2023-03-11T18:11:03;11.20;;;4.40;;
29814;SDS011;16708;50.426;7.664;2023-03-11T18:15:58;13.20;;;4.20;;
29814;SDS011;16708;50.426;7.664;2023-03-11T18:20:52;10.00;;;4.10;;
29814;SDS011;16708;50.426;7.664;2023-03-11T18:25:46;8.60;;;4.20;;
29814;SDS011;16708;50.426;7.664;2023-03-11T18:30:40;13.80;;;5.70;;
29814;SDS011;16708;50.426;7.664;2023-03-11T18:35:34;19.20;;;7.30;;
29814;SDS011;16708;50.426;7.664;2023-03-11T18:40:28;14.90;;;6.80;;
29814;SDS011;16708;50.426;7.664;2023-03-11T18:45:23;16.30;;;6.80;;
29814;SDS011;16708;50.426;7.664;2023-03-11T18:50:16;19.00;;;7.90;;
29814;SDS011;16708;50.426;7.664;2023-03-11T18:55:10;16.60;;;6.70;;
29814;SDS011;16708;50.426;7.664;2023-03-11T19:00:05;24.80;;;9.70;;
29814;SDS011;16708;50.426;7.664;2023-03-11T19:04:59;16.90;;;6.30;;
29814;SDS011;16708;50.426;7.664;2023-03-11T19:09:53;15.90;;;5.40;;
29814;SDS011;16708;50.426;7.664;2023-03-11T19:14:47;17.90;;;5.80;;
29814;SDS011;16708;50.426;7.664;2023-03-11T19:19:41;17.00;;;5.70;;
29814;SDS011;16708;50.426;7.664;2023-03-11T19:24:35;16.50;;;6.40;;
29814;SDS011;16708;50.426;7.664;2023-03-11T19:29:29;20.30;;;7.20;;
29814;SDS011;16708;50.426;7.664;2023-03-11T19:34:23;17.10;;;5.50;;
29814;SDS011;16708;50.426;7.664;2023-03-11T19:39:18;19.30;;;7.00;;
29814;SDS011;16708;50.426;7.664;2023-03-11T19:44:11;15.40;;;6.30;;
29814;SDS011;16708;50.426;7.664;2023-03-11T19:49:05;15.40;;;6.30;;
29814;SDS011;16708;50.426;7.664;2023-03-11T19:53:59;19.80;;;7.30;;
29814;SDS011;16708;50.426;7.664;2023-03-11T19:58:53;18.80;;;7.20;;
29814;SDS011;16708;50.426;7.664;2023-03-11T20:03:44;21.90;;;8.60;;
29814;SDS011;16708;50.426;7.664;2023-03-11T20:08:35;17.60;;;7.50;;
29814;SDS011;16708;50.426;7.664;2023-03-11T20:13:29;17.70;;;7.20;;
29814;SDS011;16708;50.426;7.664;2023-03-11T20:18:27;13.80;;;5.90;;
29814;SDS011;16708;50.426;7.664;2023-03-11T20:23:17;13.20;;;5.80;;
29814;SDS011;16708;50.426;7.664;2023-03-11T20:28:11;14.10;;;5.70;;
29814;SDS011;16708;50.426;7.664;2023-03-11T20:33:04;15.30;;;6.20;;
29814;SDS011;16708;50.426;7.664;2023-03-11T20:37:58;24.90;;;9.40;;
29814;SDS011;16708;50.426;7.664;2023-03-11T20:42:53;15.70;;;6.40;;
29814;SDS011;16708;50.426;7.664;2023-03-11T20:47:44;17.00;;;6.90;;
29814;SDS011;16708;50.426;7.664;2023-03-11T20:52:37;21.10;;;8.00;;
29814;SDS011;16708;50.426;7.664;2023-03-11T20:57:31;22.60;;;7.90;;
29814;SDS011;16708;50.426;7.664;2023-03-11T21:02:23;22.60;;;8.90;;
29814;SDS011;16708;50.426;7.664;2023-03-11T21:07:17;26.00;;;9.50;;
29814;SDS011;16708;50.426;7.664;2023-03-11T21:12:11;28.40;;;11.10;;
29814;SDS011;16708;50.426;7.664;2023-03-11T21:17:05;39.10;;;11.60;;
29814;SDS011;16708;50.426;7.664;2023-03-11T21:21:59;28.10;;;10.30;;
29814;SDS011;16708;50.426;7.664;2023-03-11T21:26:53;30.80;;;10.20;;
29814;SDS011;16708;50.426;7.664;2023-03-11T21:31:47;28.00;;;8.80;;
29814;SDS011;16708;50.426;7.664;2023-03-11T21:36:41;25.40;;;8.80;;
29814;SDS011;16708;50.426;7.664;2023-03-11T21:41:35;35.50;;;12.90;;
29814;SDS011;16708;50.426;7.664;2023-03-11T21:46:30;33.90;;;12.80;;
29814;SDS011;16708;50.426;7.664;2023-03-11T21:51:24;37.80;;;13.70;;
29814;SDS011;16708;50.426;7.664;2023-03-11T21:56:16;32.60;;;12.20;;
29814;SDS011;16708;50.426;7.664;2023-03-11T22:01:10;22.20;;;9.20;;
29814;SDS011;16708;50.426;7.664;2023-03-11T22:06:04;26.00;;;9.20;;
29814;SDS011;16708;50.426;7.664;2023-03-11T22:10:58;22.10;;;7.90;;
29814;SDS011;16708;50.426;7.664;2023-03-11T22:15:52;25.10;;;7.70;;
29814;SDS011;16708;50.426;7.664;2023-03-11T22:20:46;15.70;;;5.80;;
29814;SDS011;16708;50.426;7.664;2023-03-11T22:25:40;15.20;;;5.50;;
29814;SDS011;16708;50.426;7.664;2023-03-11T22:30:34;24.90;;;7.10;;
29814;SDS011;16708;50.426;7.664;2023-03-11T22:35:28;22.40;;;8.30;;
29814;SDS011;16708;50.426;7.664;2023-03-11T22:40:22;28.80;;;9.00;;
29814;SDS011;16708;50.426;7.664;2023-03-11T22:45:16;22.20;;;8.10;;
29814;SDS011;16708;50.426;7.664;2023-03-11T22:50:11;19.40;;;7.90;;
29814;SDS011;16708;50.426;7.664;2023-03-11T22:55:05;21.00;;;7.90;;
29814;SDS011;16708;50.426;7.664;2023-03-11T22:59:59;25.20;;;8.80;;
29814;SDS011;16708;50.426;7.664;2023-03-11T23:04:54;22.10;;;7.80;;
29814;SDS011;16708;50.426;7.664;2023-03-11T23:09:48;19.60;;;7.50;;
29814;SDS011;16708;50.426;7.664;2023-03-11T23:14:43;17.60;;;6.10;;
29814;SDS011;16708;50.426;7.664;2023-03-11T23:19:36;15.90;;;5.60;;
29814;SDS011;16708;50.426;7.664;2023-03-11T23:24:29;9.70;;;3.20;;
29814;SDS011;16708;50.426;7.664;2023-03-11T23:29:24;39.20;;;8.40;;
29814;SDS011;16708;50.426;7.664;2023-03-11T23:34:16;25.70;;;7.30;;
29814;SDS011;16708;50.426;7.664;2023-03-11T23:39:10;21.50;;;6.10;;
29814;SDS011;16708;50.426;7.664;2023-03-11T23:44:04;95.80;;;19.50;;
29814;SDS011;16708;50.426;7.664;2023-03-11T23:48:58;8.40;;;2.50;;
29814;SDS011;16708;50.426;7.664;2023-03-11T23:53:53;43.70;;;8.50;;
29814;SDS011;16708;50.426;7.664;2023-03-11T23:58:48;33.00;;;6.20;;
